Time;durP1;ratioP1;P1;durP2;ratioP2;P2;SDS_P1;SDS_P2;PMS_P1;PMS_P2;Temp;Humidity;BMP_temperature;BMP_pressure;BME280_temperature;BME280_humidity;BME280_pressure;Samples;Min_cycle;Max_cycle;Signal;HPM_P1;HPM_P2
2023/08/27 00:01:59;;;;;;;4.47;3.00;;;19.70;99.90;;;;;;4989554;28;20210;-70
2023/08/27 00:04:25;;;;;;;5.60;3.10;;;19.60;99.90;;;;;;4987760;28;20185;-73
2023/08/27 00:06:50;;;;;;;8.80;3.17;;;19.60;99.90;;;;;;4985124;28;20177;-71
2023/08/27 00:09:16;;;;;;;3.45;2.78;;;19.60;99.90;;;;;;5003739;28;20217;-72
2023/08/27 00:11:42;;;;;;;9.48;3.03;;;19.60;99.90;;;;;;4983996;28;20223;-72
2023/08/27 00:14:08;;;;;;;4.50;3.00;;;19.60;99.90;;;;;;4991978;28;20322;-72
2023/08/27 00:16:35;;;;;;;6.60;3.10;;;19.50;99.90;;;;;;5008098;28;20634;-72
2023/08/27 00:19:02;;;;;;;6.35;3.25;;;19.50;99.90;;;;;;4992704;28;20205;-72
2023/08/27 00:21:28;;;;;;;3.78;2.85;;;19.60;99.90;;;;;;5006340;28;20225;-73
2023/08/27 00:23:53;;;;;;;8.60;3.25;;;19.60;99.90;;;;;;5013268;28;20211;-72
2023/08/27 00:26:19;;;;;;;6.15;3.28;;;19.50;99.90;;;;;;5006415;28;20300;-72
2023/08/27 00:28:44;;;;;;;4.30;3.28;;;19.50;99.90;;;;;;5000002;28;20715;-72
2023/08/27 00:31:10;;;;;;;5.82;3.90;;;19.30;99.90;;;;;;4999833;28;20201;-72
2023/08/27 00:33:36;;;;;;;47.50;31.00;;;19.30;99.90;;;;;;5010517;28;20194;-71
2023/08/27 00:36:01;;;;;;;71.50;47.30;;;19.30;99.90;;;;;;5011480;28;20204;-72
2023/08/27 00:38:27;;;;;;;69.90;46.05;;;19.30;99.90;;;;;;4988791;28;20206;-71
2023/08/27 00:40:52;;;;;;;81.95;49.60;;;19.30;99.90;;;;;;4993494;28;20209;-72
2023/08/27 00:43:18;;;;;;;83.53;49.25;;;19.40;99.90;;;;;;5004962;28;20566;-72
2023/08/27 00:45:44;;;;;;;75.60;46.15;;;19.50;99.90;;;;;;5006278;28;20192;-72
2023/08/27 00:48:10;;;;;;;45.35;29.58;;;19.50;99.90;;;;;;5003957;28;20256;-72
2023/08/27 00:50:37;;;;;;;34.47;20.65;;;19.40;99.90;;;;;;5012348;28;20217;-72
2023/08/27 00:53:02;;;;;;;25.75;15.40;;;19.40;99.90;;;;;;5022041;28;20219;-72
2023/08/27 00:55:28;;;;;;;23.83;15.45;;;19.40;99.90;;;;;;5010859;28;20209;-71
2023/08/27 00:57:54;;;;;;;21.35;13.50;;;19.30;99.90;;;;;;5011555;28;20670;-72
2023/08/27 01:00:20;;;;;;;19.80;13.38;;;19.30;99.90;;;;;;5012938;28;20575;-72
2023/08/27 01:02:47;;;;;;;13.90;10.02;;;19.30;99.90;;;;;;5012176;28;20212;-72
2023/08/27 01:05:14;;;;;;;12.88;7.75;;;19.20;99.90;;;;;;4992457;28;20205;-71
2023/08/27 01:08:06;;;;;;;11.18;7.45;;;19.20;99.90;;;;;;4990966;28;20715;-72
2023/08/27 01:10:44;;;;;;;10.65;7.75;;;19.20;99.90;;;;;;5010085;28;20230;-72
2023/08/27 01:13:18;;;;;;;11.43;6.78;;;19.10;99.90;;;;;;4994674;28;20204;-72
2023/08/27 01:15:45;;;;;;;11.07;6.45;;;19.20;99.90;;;;;;5006135;28;20174;-72
2023/08/27 01:18:14;;;;;;;7.93;5.63;;;19.10;99.90;;;;;;4989545;28;20209;-72
2023/08/27 01:20:40;;;;;;;8.20;5.97;;;19.10;99.90;;;;;;4985060;28;20221;-73
2023/08/27 01:23:06;;;;;;;9.73;5.45;;;19.10;99.90;;;;;;5008063;28;20224;-72
2023/08/27 01:25:45;;;;;;;7.20;4.60;;;19.10;99.90;;;;;;5001562;28;21017;-71
2023/08/27 01:28:23;;;;;;;5.63;4.53;;;19.10;99.90;;;;;;5020278;28;20172;-72
2023/08/27 01:31:08;;;;;;;6.60;4.40;;;19.10;99.90;;;;;;4996843;28;20200;-71
2023/08/27 01:33:35;;;;;;;7.53;4.82;;;19.10;99.90;;;;;;5015556;28;20742;-72
2023/08/27 01:36:01;;;;;;;4.63;3.55;;;19.10;99.90;;;;;;4997560;28;20209;-72
2023/08/27 01:38:26;;;;;;;4.15;3.58;;;19.00;99.90;;;;;;5007842;28;20708;-72
2023/08/27 01:40:52;;;;;;;6.78;4.22;;;19.00;99.90;;;;;;5008538;28;20205;-72
2023/08/27 01:43:18;;;;;;;4.93;3.60;;;19.00;99.90;;;;;;4993159;28;20542;-72
2023/08/27 01:45:44;;;;;;;5.80;3.22;;;19.00;99.90;;;;;;5008797;28;20200;-72
2023/08/27 01:48:09;;;;;;;6.28;3.67;;;19.00;99.90;;;;;;5009756;28;20220;-72
2023/08/27 01:50:35;;;;;;;6.60;3.67;;;19.10;99.90;;;;;;4990294;28;20213;-72
2023/08/27 01:53:00;;;;;;;6.60;3.67;;;19.10;99.90;;;;;;5009211;28;20769;-72
2023/08/27 01:55:26;;;;;;;4.40;3.17;;;19.10;99.90;;;;;;5006733;28;20212;-72
2023/08/27 01:57:52;;;;;;;7.35;3.63;;;19.10;99.90;;;;;;5005267;28;20173;-72
2023/08/27 02:00:18;;;;;;;5.57;3.50;;;19.00;99.90;;;;;;5005002;28;20259;-72
2023/08/27 02:02:45;;;;;;;5.97;3.45;;;19.00;99.90;;;;;;5008024;28;20210;-72
2023/08/27 02:05:10;;;;;;;4.10;3.05;;;19.00;99.90;;;;;;5017167;28;20232;-74
2023/08/27 02:07:38;;;;;;;3.30;2.88;;;19.00;99.90;;;;;;5014598;28;20220;-72
2023/08/27 02:10:05;;;;;;;7.03;3.15;;;19.00;99.90;;;;;;5019794;28;20176;-72
2023/08/27 02:12:31;;;;;;;4.50;3.08;;;19.00;99.90;;;;;;4991159;28;20745;-71
2023/08/27 02:14:56;;;;;;;7.25;3.38;;;18.90;99.90;;;;;;5002390;28;20209;-72
2023/08/27 02:17:22;;;;;;;6.32;3.53;;;18.90;99.90;;;;;;4989437;28;20255;-71
2023/08/27 02:19:47;;;;;;;4.72;3.42;;;18.90;99.90;;;;;;5004064;28;20210;-71
2023/08/27 02:22:13;;;;;;;5.80;3.38;;;19.00;99.90;;;;;;5007373;28;20228;-72
2023/08/27 02:24:39;;;;;;;4.45;3.17;;;18.90;99.90;;;;;;4986535;28;20619;-72
2023/08/27 02:27:04;;;;;;;4.60;3.30;;;18.90;99.90;;;;;;5006603;28;20252;-73
2023/08/27 02:29:30;;;;;;;4.32;3.00;;;19.00;99.90;;;;;;4986963;28;20209;-72
2023/08/27 02:31:56;;;;;;;3.95;2.80;;;19.00;99.90;;;;;;4988684;28;20219;-73
2023/08/27 02:34:21;;;;;;;5.35;3.10;;;18.90;99.90;;;;;;5004883;28;20220;-72
2023/08/27 02:36:47;;;;;;;4.00;2.92;;;18.90;99.90;;;;;;5004041;28;20184;-70
2023/08/27 02:39:13;;;;;;;5.45;2.92;;;18.90;99.90;;;;;;4985839;28;20211;-72
2023/08/27 02:41:38;;;;;;;3.70;2.95;;;18.80;99.90;;;;;;5008057;28;20239;-72
2023/08/27 02:44:04;;;;;;;4.32;2.80;;;18.90;99.90;;;;;;5010915;28;20219;-72
2023/08/27 02:46:30;;;;;;;4.57;3.00;;;18.90;99.90;;;;;;4991675;28;20209;-72
2023/08/27 02:48:56;;;;;;;4.45;2.60;;;18.90;99.90;;;;;;5010376;28;20267;-73
2023/08/27 02:51:21;;;;;;;4.47;2.90;;;18.90;99.90;;;;;;5005254;28;20213;-72
2023/08/27 02:53:50;;;;;;;4.40;2.97;;;18.90;99.90;;;;;;4999365;28;20692;-71
2023/08/27 02:56:17;;;;;;;5.00;3.03;;;19.00;99.90;;;;;;5008514;28;20215;-73
2023/08/27 02:58:43;;;;;;;6.68;3.13;;;19.10;99.90;;;;;;4986946;28;20719;-72
2023/08/27 03:01:09;;;;;;;4.13;2.80;;;19.00;99.90;;;;;;5006258;28;20224;-72
2023/08/27 03:03:35;;;;;;;4.95;3.00;;;18.90;99.90;;;;;;5003692;28;20212;-72
2023/08/27 03:06:01;;;;;;;4.72;2.75;;;18.80;99.90;;;;;;5004514;28;20263;-73
2023/08/27 03:08:26;;;;;;;6.78;3.25;;;18.80;99.90;;;;;;4985667;28;20292;-73
2023/08/27 03:10:52;;;;;;;5.65;2.85;;;18.80;99.90;;;;;;4984651;28;20213;-72
2023/08/27 03:13:17;;;;;;;5.13;3.22;;;18.80;99.90;;;;;;5002567;28;20240;-72
2023/08/27 03:15:43;;;;;;;4.25;3.13;;;18.80;99.90;;;;;;5001135;28;20721;-71
2023/08/27 03:18:09;;;;;;;4.40;2.88;;;18.80;99.90;;;;;;5001103;28;20216;-72
2023/08/27 03:20:35;;;;;;;3.75;2.90;;;18.90;99.90;;;;;;5007161;28;20237;-72
2023/08/27 03:23:01;;;;;;;5.68;3.03;;;18.90;99.90;;;;;;5007568;28;20683;-72
2023/08/27 03:25:26;;;;;;;4.65;2.85;;;18.90;99.90;;;;;;5008749;28;20192;-72
2023/08/27 03:27:52;;;;;;;7.80;3.63;;;18.90;99.90;;;;;;4989656;28;20194;-72
2023/08/27 03:30:17;;;;;;;3.00;2.70;;;18.90;99.90;;;;;;5007703;28;20243;-73
2023/08/27 03:32:43;;;;;;;4.60;2.90;;;18.80;99.90;;;;;;5000502;28;20688;-71
2023/08/27 03:35:09;;;;;;;4.53;3.17;;;18.80;99.90;;;;;;5005486;28;20205;-73
2023/08/27 03:37:34;;;;;;;4.43;3.03;;;18.70;99.90;;;;;;4986963;28;20216;-73
2023/08/27 03:40:01;;;;;;;5.32;3.53;;;18.60;99.90;;;;;;5005048;28;20648;-72
2023/08/27 03:42:26;;;;;;;5.07;3.03;;;18.70;99.90;;;;;;5004008;28;20212;-72
2023/08/27 03:44:52;;;;;;;4.85;3.20;;;18.80;99.90;;;;;;5001666;28;20220;-72
2023/08/27 03:47:18;;;;;;;7.20;3.90;;;18.70;99.90;;;;;;5004973;28;20209;-72
2023/08/27 03:49:43;;;;;;;4.75;3.63;;;18.60;99.90;;;;;;4989317;28;20209;-72
2023/08/27 03:52:09;;;;;;;6.18;3.15;;;18.60;99.90;;;;;;4998690;28;20205;-72
2023/08/27 03:54:34;;;;;;;5.35;3.78;;;18.70;99.90;;;;;;5002537;28;20212;-72
2023/08/27 03:57:00;;;;;;;5.28;3.95;;;18.80;99.90;;;;;;5008921;28;20216;-72
2023/08/27 03:59:26;;;;;;;4.57;3.97;;;18.80;99.90;;;;;;5009087;28;20304;-71
2023/08/27 04:01:52;;;;;;;5.93;4.03;;;18.80;99.90;;;;;;5008958;28;20205;-72
2023/08/27 04:04:18;;;;;;;5.65;4.22;;;18.80;99.90;;;;;;5012043;28;20682;-71
2023/08/27 04:06:44;;;;;;;6.22;4.35;;;18.80;99.90;;;;;;5010098;28;20232;-70
2023/08/27 04:09:09;;;;;;;6.75;3.97;;;18.80;99.90;;;;;;4996408;28;20220;-72
2023/08/27 04:11:35;;;;;;;6.28;4.18;;;18.80;99.90;;;;;;4991432;28;20209;-72
2023/08/27 04:14:01;;;;;;;5.88;4.05;;;18.70;99.90;;;;;;5008281;28;20371;-72
2023/08/27 04:16:27;;;;;;;9.43;7.50;;;18.60;99.90;;;;;;5010453;28;20328;-72
2023/08/27 04:18:52;;;;;;;9.13;6.38;;;18.60;99.90;;;;;;5006752;28;20182;-72
2023/08/27 04:21:18;;;;;;;8.18;4.68;;;18.60;99.90;;;;;;5007473;28;20217;-71
2023/08/27 04:23:44;;;;;;;5.03;4.53;;;18.70;99.90;;;;;;5004139;28;20225;-72
2023/08/27 04:26:09;;;;;;;4.85;3.67;;;18.80;99.90;;;;;;4993608;28;20209;-72
2023/08/27 04:28:36;;;;;;;6.18;3.72;;;18.90;99.90;;;;;;4988210;28;20209;-73
2023/08/27 04:31:03;;;;;;;5.65;3.67;;;18.90;99.90;;;;;;5005560;28;20194;-72
2023/08/27 04:33:28;;;;;;;6.57;3.47;;;18.90;99.90;;;;;;5011271;28;20217;-72
2023/08/27 04:35:54;;;;;;;5.45;3.65;;;18.90;99.90;;;;;;5007194;28;20209;-72
2023/08/27 04:38:20;;;;;;;7.55;3.90;;;18.90;99.90;;;;;;5012744;28;20211;-73
2023/08/27 04:40:51;;;;;;;5.25;3.05;;;18.90;99.90;;;;;;5006920;28;20212;-71
2023/08/27 04:43:16;;;;;;;4.80;3.33;;;19.10;99.90;;;;;;5008771;28;20177;-72
2023/08/27 04:45:43;;;;;;;7.47;3.97;;;18.90;99.90;;;;;;4991421;28;20185;-72
2023/08/27 04:48:08;;;;;;;5.47;3.58;;;18.90;99.90;;;;;;5009246;28;20201;-72
2023/08/27 04:50:35;;;;;;;5.18;3.00;;;18.80;99.90;;;;;;5008348;28;20788;-73
2023/08/27 04:53:00;;;;;;;5.55;3.58;;;19.10;99.90;;;;;;5006677;28;20616;-72
2023/08/27 04:55:26;;;;;;;6.20;3.28;;;19.60;99.90;;;;;;5009096;28;20169;-70
2023/08/27 04:57:52;;;;;;;5.03;3.20;;;19.60;99.90;;;;;;5004449;28;20173;-70
2023/08/27 05:00:22;;;;;;;5.97;3.72;;;19.80;99.90;;;;;;5001874;28;20205;-70
2023/08/27 05:02:49;;;;;;;4.93;3.33;;;19.80;99.90;;;;;;4998530;28;20733;-73
2023/08/27 05:05:16;;;;;;;4.68;3.67;;;19.70;99.90;;;;;;4988914;28;20221;-68
2023/08/27 05:07:42;;;;;;;5.90;3.90;;;19.50;99.90;;;;;;5005329;28;20632;-70
2023/08/27 05:10:08;;;;;;;5.38;4.50;;;19.50;99.90;;;;;;5011759;28;20182;-71
2023/08/27 05:12:34;;;;;;;5.75;4.30;;;19.30;99.90;;;;;;5011853;28;20667;-70
2023/08/27 05:14:59;;;;;;;9.25;6.32;;;19.20;99.90;;;;;;5009649;28;20216;-71
2023/08/27 05:17:25;;;;;;;5.28;4.78;;;19.10;99.90;;;;;;5013178;28;20727;-70
2023/08/27 05:19:51;;;;;;;6.38;4.82;;;19.10;99.90;;;;;;5008675;28;20295;-67
2023/08/27 05:22:16;;;;;;;6.43;4.55;;;19.00;99.90;;;;;;5010271;28;20208;-72
2023/08/27 05:24:42;;;;;;;8.98;4.60;;;19.10;99.90;;;;;;5008534;28;20192;-73
2023/08/27 05:27:08;;;;;;;6.18;3.92;;;19.00;99.90;;;;;;5009438;28;20209;-72
2023/08/27 05:29:33;;;;;;;7.57;4.45;;;19.10;99.90;;;;;;5010145;28;20267;-72
2023/08/27 05:31:59;;;;;;;6.82;5.32;;;19.30;99.90;;;;;;5000532;28;20213;-72
2023/08/27 05:34:26;;;;;;;5.10;4.18;;;19.50;99.90;;;;;;5006229;28;20200;-72
2023/08/27 05:36:52;;;;;;;7.22;4.35;;;20.00;99.90;;;;;;5002996;28;20185;-69
2023/08/27 05:39:18;;;;;;;8.77;5.00;;;19.90;99.90;;;;;;5005663;28;20216;-73
2023/08/27 05:41:44;;;;;;;5.32;3.63;;;19.70;99.90;;;;;;4984319;28;20210;-73
2023/08/27 05:44:09;;;;;;;8.93;4.47;;;20.00;99.90;;;;;;5003172;28;20272;-72
2023/08/27 05:46:35;;;;;;;6.28;3.75;;;19.90;99.90;;;;;;5011696;28;20204;-73
2023/08/27 05:49:01;;;;;;;5.05;4.20;;;20.10;99.90;;;;;;5011099;28;20173;-73
2023/08/27 05:51:27;;;;;;;7.30;4.43;;;20.20;99.90;;;;;;4990222;28;20719;-72
2023/08/27 05:53:52;;;;;;;8.40;5.55;;;20.30;99.90;;;;;;5008674;28;20565;-72
2023/08/27 05:56:18;;;;;;;7.88;4.38;;;20.10;99.90;;;;;;5005698;28;20221;-71
2023/08/27 05:58:44;;;;;;;7.15;4.40;;;20.00;99.90;;;;;;4990516;28;20232;-73
2023/08/27 06:01:10;;;;;;;8.20;6.53;;;20.00;99.90;;;;;;5006480;28;20212;-73
2023/08/27 06:03:35;;;;;;;9.77;6.47;;;20.00;99.90;;;;;;4990256;28;20189;-72
2023/08/27 06:06:01;;;;;;;6.68;4.40;;;20.10;99.90;;;;;;5004328;28;20204;-72
2023/08/27 06:08:27;;;;;;;3.97;3.60;;;20.20;99.90;;;;;;5005803;28;20311;-73
2023/08/27 06:10:52;;;;;;;6.32;3.30;;;20.30;99.90;;;;;;5002467;28;20732;-72
2023/08/27 06:13:18;;;;;;;5.22;3.33;;;20.30;99.90;;;;;;5006178;28;20548;-72
2023/08/27 06:15:44;;;;;;;6.78;4.13;;;20.00;99.90;;;;;;4988298;28;20619;-73
2023/08/27 06:18:09;;;;;;;5.65;4.05;;;20.10;99.90;;;;;;4998452;28;20575;-73
2023/08/27 06:20:35;;;;;;;7.18;3.53;;;20.30;99.90;;;;;;5004989;28;20714;-73
2023/08/27 06:23:04;;;;;;;5.78;3.97;;;20.60;99.90;;;;;;5008237;28;20292;-73
2023/08/27 06:25:35;;;;;;;10.25;5.85;;;20.70;99.90;;;;;;4985253;28;20216;-72
2023/08/27 06:28:03;;;;;;;7.60;3.97;;;20.80;99.90;;;;;;5007380;28;20181;-72
2023/08/27 06:30:28;;;;;;;6.40;4.47;;;20.70;99.90;;;;;;5007307;28;20641;-73
2023/08/27 06:32:54;;;;;;;6.95;4.22;;;20.90;99.90;;;;;;5004905;28;20209;-72
2023/08/27 06:35:20;;;;;;;6.55;3.40;;;21.20;99.90;;;;;;5003479;28;20695;-73
2023/08/27 06:37:45;;;;;;;5.97;4.15;;;21.30;99.90;;;;;;5006879;28;20205;-72
2023/08/27 06:40:13;;;;;;;4.43;3.38;;;21.20;99.90;;;;;;5003668;28;20802;-72
2023/08/27 06:42:38;;;;;;;5.15;3.28;;;21.20;99.90;;;;;;5003516;28;20181;-73
2023/08/27 06:45:04;;;;;;;5.63;3.13;;;21.10;99.90;;;;;;5006104;28;20217;-72
2023/08/27 06:47:30;;;;;;;4.50;3.25;;;21.40;99.90;;;;;;5003012;28;20259;-72
2023/08/27 06:49:56;;;;;;;4.53;3.08;;;21.70;99.90;;;;;;5003109;28;20259;-72
2023/08/27 06:52:22;;;;;;;5.03;3.13;;;21.90;99.90;;;;;;4988059;28;20404;-72
2023/08/27 06:54:47;;;;;;;7.30;4.78;;;22.40;99.90;;;;;;5006300;28;20220;-71
2023/08/27 06:57:13;;;;;;;8.57;5.22;;;23.60;99.90;;;;;;5006059;28;20217;-72
2023/08/27 06:59:38;;;;;;;3.95;2.95;;;23.60;99.90;;;;;;4988236;28;20693;-72
2023/08/27 07:02:04;;;;;;;4.35;2.72;;;23.20;99.90;;;;;;5002851;28;20220;-72
2023/08/27 07:04:31;;;;;;;5.28;3.88;;;22.20;99.90;;;;;;4988803;28;20264;-72
2023/08/27 07:06:57;;;;;;;4.85;3.05;;;21.30;99.90;;;;;;5006916;28;20204;-72
2023/08/27 07:09:23;;;;;;;5.63;2.83;;;20.80;99.90;;;;;;4986096;28;20692;-72
2023/08/27 07:11:48;;;;;;;5.30;3.95;;;20.60;99.90;;;;;;5006672;28;20213;-71
2023/08/27 07:14:14;;;;;;;4.50;3.00;;;20.60;99.90;;;;;;5002662;28;20279;-72
2023/08/27 07:16:40;;;;;;;4.22;2.60;;;20.40;99.90;;;;;;5002373;28;20218;-72
2023/08/27 07:19:05;;;;;;;5.00;3.33;;;20.50;99.90;;;;;;4988097;28;20279;-72
2023/08/27 07:21:31;;;;;;;4.20;2.83;;;20.50;99.90;;;;;;4986673;28;20579;-72
2023/08/27 07:23:57;;;;;;;4.47;3.05;;;20.50;99.90;;;;;;5003725;28;20594;-72
2023/08/27 07:26:22;;;;;;;5.63;2.42;;;20.50;99.90;;;;;;4998039;28;20254;-71
2023/08/27 07:28:48;;;;;;;6.15;2.85;;;20.50;99.90;;;;;;5001035;28;20227;-71
2023/08/27 07:31:14;;;;;;;4.57;2.72;;;20.60;99.90;;;;;;4988044;28;20212;-72
2023/08/27 07:33:39;;;;;;;4.57;2.65;;;20.50;99.90;;;;;;5002286;28;20198;-71
2023/08/27 07:36:05;;;;;;;4.78;2.63;;;20.50;99.90;;;;;;4986026;28;20236;-72
2023/08/27 07:38:31;;;;;;;6.82;3.08;;;20.80;99.90;;;;;;5003500;28;20243;-72
2023/08/27 07:40:56;;;;;;;5.18;3.78;;;20.90;99.90;;;;;;5003882;28;20221;-72
2023/08/27 07:43:22;;;;;;;4.03;3.40;;;21.20;99.90;;;;;;4997778;28;20223;-73
2023/08/27 07:45:48;;;;;;;6.72;2.85;;;21.60;99.90;;;;;;5000421;28;20177;-71
2023/08/27 07:48:14;;;;;;;4.20;2.80;;;21.70;99.90;;;;;;5006188;28;20402;-72
2023/08/27 07:50:39;;;;;;;6.50;2.65;;;21.80;99.90;;;;;;5005543;28;20272;-74
2023/08/27 07:53:05;;;;;;;3.97;2.47;;;22.20;99.90;;;;;;5001211;28;20208;-73
2023/08/27 07:55:34;;;;;;;6.60;2.13;;;22.30;99.90;;;;;;5000132;28;20212;-74
2023/08/27 07:58:00;;;;;;;3.67;2.22;;;22.10;99.90;;;;;;4999705;28;20257;-74
2023/08/27 08:00:25;;;;;;;3.92;2.08;;;21.90;99.90;;;;;;5000671;28;20300;-72
2023/08/27 08:02:51;;;;;;;10.05;4.32;;;21.90;99.90;;;;;;5001287;28;20209;-72
2023/08/27 08:05:17;;;;;;;3.80;2.47;;;22.50;99.90;;;;;;4999754;28;20225;-73
2023/08/27 08:07:42;;;;;;;3.47;2.20;;;23.00;99.90;;;;;;4995606;28;20214;-73
2023/08/27 08:10:08;;;;;;;4.72;2.60;;;22.60;99.90;;;;;;5000824;28;20182;-72
2023/08/27 08:12:34;;;;;;;3.78;2.17;;;23.10;99.90;;;;;;5000993;28;20643;-74
2023/08/27 08:15:00;;;;;;;5.25;3.00;;;23.30;99.90;;;;;;4996045;28;20267;-73
2023/08/27 08:17:26;;;;;;;5.28;2.58;;;23.60;99.90;;;;;;4999649;28;21611;-74
2023/08/27 08:19:52;;;;;;;4.75;2.50;;;23.70;99.90;;;;;;5000594;28;20711;-74
2023/08/27 08:22:18;;;;;;;4.07;2.67;;;23.60;99.90;;;;;;5000912;28;20313;-73
2023/08/27 08:24:43;;;;;;;2.83;2.30;;;23.60;99.90;;;;;;5002044;28;20169;-73
2023/08/27 08:27:09;;;;;;;4.90;2.30;;;23.30;99.90;;;;;;4981777;28;20572;-72
2023/08/27 08:29:35;;;;;;;5.20;2.38;;;22.90;99.90;;;;;;5003336;28;20213;-73
2023/08/27 08:32:00;;;;;;;5.57;2.17;;;22.60;99.90;;;;;;5001578;28;20217;-72
2023/08/27 08:34:30;;;;;;;3.83;2.55;;;22.50;99.90;;;;;;4999452;28;20208;-71
2023/08/27 08:36:56;;;;;;;3.50;2.15;;;22.50;99.90;;;;;;5000434;28;20173;-72
2023/08/27 08:39:23;;;;;;;6.90;4.53;;;22.20;99.90;;;;;;4998627;28;20587;-73
2023/08/27 08:42:30;;;;;;;4.25;2.28;;;22.20;99.90;;;;;;4999145;28;20208;-72
2023/08/27 08:45:25;;;;;;;4.65;2.72;;;22.30;99.90;;;;;;4987054;28;20244;-73
2023/08/27 08:47:53;;;;;;;7.28;5.97;;;22.20;99.90;;;;;;5004841;28;20255;-70
2023/08/27 08:50:21;;;;;;;5.20;2.78;;;22.20;99.90;;;;;;5004503;28;20205;-71
2023/08/27 08:52:49;;;;;;;4.07;2.10;;;22.10;99.90;;;;;;4983872;28;20198;-69
2023/08/27 08:55:16;;;;;;;3.65;2.00;;;22.10;99.90;;;;;;4986018;28;20188;-72
2023/08/27 08:58:03;;;;;;;3.53;2.00;;;22.00;99.90;;;;;;4994133;28;20174;-72
2023/08/27 09:00:30;;;;;;;3.20;2.30;;;21.80;99.90;;;;;;5000706;28;20267;-72
2023/08/27 09:03:00;;;;;;;4.38;2.90;;;21.70;99.90;;;;;;5006319;28;20739;-71
2023/08/27 09:05:26;;;;;;;3.08;1.90;;;21.70;99.90;;;;;;5003151;28;20218;-71
2023/08/27 09:07:51;;;;;;;4.97;3.50;;;22.00;99.90;;;;;;5005470;28;20203;-71
2023/08/27 09:10:18;;;;;;;3.80;2.20;;;22.00;99.90;;;;;;4989927;28;20271;-72
2023/08/27 09:12:46;;;;;;;3.90;2.17;;;22.20;99.90;;;;;;4992696;28;20174;-71
2023/08/27 09:15:13;;;;;;;3.25;2.10;;;22.20;99.90;;;;;;5004997;28;20205;-69
2023/08/27 09:17:39;;;;;;;2.63;2.10;;;22.10;99.90;;;;;;5003696;28;20211;-71
2023/08/27 09:20:07;;;;;;;3.33;2.08;;;22.10;99.90;;;;;;5005434;28;20204;-71
2023/08/27 09:22:35;;;;;;;3.25;2.00;;;22.10;99.90;;;;;;5005154;28;20228;-68
2023/08/27 09:25:02;;;;;;;3.58;1.75;;;21.90;99.90;;;;;;4984861;28;20169;-71
2023/08/27 09:27:29;;;;;;;3.08;1.85;;;21.70;99.90;;;;;;5006337;28;20215;-72
2023/08/27 09:29:59;;;;;;;2.67;1.65;;;21.60;99.90;;;;;;5007600;28;20642;-72
2023/08/27 09:32:24;;;;;;;4.50;2.72;;;21.50;99.90;;;;;;4992196;28;20221;-71
2023/08/27 09:35:11;;;;;;;6.68;3.65;;;21.70;99.90;;;;;;5007166;28;20216;-69
2023/08/27 09:37:43;;;;;;;4.65;2.92;;;21.80;99.90;;;;;;5009253;28;20207;-71
2023/08/27 09:40:10;;;;;;;6.68;2.50;;;21.70;99.90;;;;;;5004098;28;20185;-72
2023/08/27 09:42:37;;;;;;;5.95;2.53;;;21.70;99.90;;;;;;5004190;28;20705;-70
2023/08/27 09:45:04;;;;;;;3.97;1.98;;;21.90;99.90;;;;;;5007917;28;20213;-71
2023/08/27 09:47:35;;;;;;;3.65;1.67;;;22.00;99.90;;;;;;5001329;28;20292;-71
2023/08/27 09:50:06;;;;;;;5.15;2.05;;;22.00;99.90;;;;;;4990585;28;20205;-71
2023/08/27 09:52:33;;;;;;;4.43;2.95;;;22.20;99.90;;;;;;5005357;28;20237;-71
2023/08/27 09:54:59;;;;;;;3.58;1.88;;;22.50;99.90;;;;;;5002215;28;20250;-72
2023/08/27 09:57:24;;;;;;;3.05;1.83;;;22.60;99.90;;;;;;5001021;28;20225;-71
2023/08/27 09:59:52;;;;;;;7.85;1.88;;;22.40;99.90;;;;;;4989814;28;20230;-71
2023/08/27 10:02:19;;;;;;;2.67;2.20;;;22.30;99.90;;;;;;4993134;28;20347;-73
2023/08/27 10:04:54;;;;;;;4.78;1.75;;;22.30;99.90;;;;;;5004826;28;20576;-75
2023/08/27 10:07:21;;;;;;;4.03;1.85;;;22.00;99.90;;;;;;4987772;28;20177;-72
2023/08/27 10:09:51;;;;;;;3.42;1.80;;;22.10;99.90;;;;;;4992248;28;20173;-70
2023/08/27 10:12:18;;;;;;;3.08;1.75;;;22.20;99.90;;;;;;5001348;28;20285;-72
2023/08/27 10:14:45;;;;;;;5.82;1.77;;;22.70;99.90;;;;;;4991425;28;20247;-73
2023/08/27 10:17:12;;;;;;;2.85;1.67;;;23.00;99.90;;;;;;4989178;28;20231;-74
2023/08/27 10:19:38;;;;;;;2.72;1.67;;;22.90;99.90;;;;;;4989298;28;20668;-73
2023/08/27 10:22:05;;;;;;;3.10;1.90;;;22.70;99.90;;;;;;4992817;28;20730;-77
2023/08/27 10:24:31;;;;;;;3.88;1.77;;;22.80;99.90;;;;;;5003936;28;20684;-72
2023/08/27 10:27:01;;;;;;;2.67;1.63;;;22.80;99.90;;;;;;5002797;28;20205;-72
2023/08/27 10:29:27;;;;;;;3.50;1.58;;;22.50;99.90;;;;;;5001217;28;20201;-73
2023/08/27 10:31:54;;;;;;;7.93;3.10;;;22.50;99.90;;;;;;4991172;28;20228;-74
2023/08/27 10:34:23;;;;;;;3.83;2.03;;;22.70;99.90;;;;;;4984940;28;20202;-69
2023/08/27 10:36:51;;;;;;;4.45;2.00;;;22.80;99.90;;;;;;4986421;28;20200;-71
2023/08/27 10:39:20;;;;;;;2.42;1.60;;;22.80;99.90;;;;;;5004123;28;20217;-71
2023/08/27 10:41:46;;;;;;;3.97;2.13;;;22.80;99.90;;;;;;5009821;28;20205;-71
2023/08/27 10:44:21;;;;;;;2.85;1.90;;;22.40;99.90;;;;;;4988526;28;20213;-71
2023/08/27 10:47:09;;;;;;;1.75;1.50;;;22.40;99.90;;;;;;5007470;28;20228;-70
2023/08/27 10:49:39;;;;;;;3.63;1.80;;;22.50;99.90;;;;;;5006929;28;20206;-71
2023/08/27 10:52:19;;;;;;;4.30;1.63;;;22.30;99.90;;;;;;4993912;28;20193;-72
2023/08/27 10:54:46;;;;;;;4.55;2.20;;;22.40;99.90;;;;;;4988412;28;20224;-71
2023/08/27 10:57:21;;;;;;;3.60;2.20;;;22.50;99.90;;;;;;5004924;28;20209;-72
2023/08/27 10:59:48;;;;;;;3.65;1.85;;;22.60;99.90;;;;;;5002954;28;20201;-69
2023/08/27 11:02:16;;;;;;;4.82;2.30;;;22.50;99.90;;;;;;5002174;28;20213;-71
2023/08/27 11:04:49;;;;;;;2.20;1.63;;;22.60;99.90;;;;;;4986950;28;20244;-72
2023/08/27 11:07:17;;;;;;;5.35;2.05;;;22.80;99.90;;;;;;5002335;28;20177;-71
2023/08/27 11:09:48;;;;;;;2.95;1.83;;;22.70;99.90;;;;;;5005386;28;20181;-71
2023/08/27 11:12:37;;;;;;;5.32;2.10;;;22.70;99.90;;;;;;5000883;28;20205;-70
2023/08/27 11:15:11;;;;;;;3.88;1.75;;;22.70;99.90;;;;;;4976550;28;20726;-71
2023/08/27 11:17:38;;;;;;;3.58;1.60;;;22.40;99.90;;;;;;5005471;28;20224;-70
2023/08/27 11:20:25;;;;;;;3.83;1.95;;;22.50;99.90;;;;;;4993065;28;20201;-70
2023/08/27 11:23:02;;;;;;;2.35;1.67;;;22.50;99.90;;;;;;5002706;28;20240;-71
2023/08/27 11:25:31;;;;;;;4.32;2.10;;;22.60;99.90;;;;;;4982536;28;20285;-71
2023/08/27 11:28:00;;;;;;;2.95;2.05;;;22.60;99.90;;;;;;4993506;28;20670;-72
2023/08/27 11:30:26;;;;;;;3.90;1.73;;;22.60;99.90;;;;;;5001026;28;20215;-69
2023/08/27 11:32:56;;;;;;;4.57;1.60;;;22.60;99.90;;;;;;4993068;28;20287;-71
2023/08/27 11:35:28;;;;;;;4.65;1.67;;;22.50;99.90;;;;;;5003996;28;20232;-71
2023/08/27 11:37:54;;;;;;;4.18;1.70;;;22.40;99.90;;;;;;5004329;28;20209;-71
2023/08/27 11:40:22;;;;;;;3.60;1.67;;;22.20;99.90;;;;;;4985272;28;20209;-69
2023/08/27 11:42:54;;;;;;;3.15;1.85;;;22.30;99.90;;;;;;5004523;28;20173;-70
2023/08/27 11:45:30;;;;;;;3.83;1.98;;;22.20;99.90;;;;;;4983470;28;20627;-70
2023/08/27 11:48:02;;;;;;;3.58;1.88;;;22.00;99.90;;;;;;5003322;28;20288;-70
2023/08/27 11:50:27;;;;;;;2.97;1.90;;;22.10;99.90;;;;;;4998869;28;20210;-68
2023/08/27 11:52:55;;;;;;;3.97;2.10;;;22.10;99.90;;;;;;5006174;28;20212;-73
2023/08/27 11:55:23;;;;;;;4.32;1.90;;;22.20;99.90;;;;;;5001925;28;20185;-70
2023/08/27 11:57:51;;;;;;;4.82;2.05;;;22.00;99.90;;;;;;4991306;28;20184;-70
2023/08/27 12:00:17;;;;;;;5.20;2.17;;;21.80;99.90;;;;;;5004403;28;20239;-70
2023/08/27 12:02:43;;;;;;;2.95;2.00;;;22.10;99.90;;;;;;4988794;28;20212;-70
2023/08/27 12:05:10;;;;;;;4.10;2.13;;;22.10;99.90;;;;;;5007338;28;20205;-70
2023/08/27 12:07:36;;;;;;;3.53;1.83;;;22.10;99.90;;;;;;5005020;28;20708;-70
2023/08/27 12:10:11;;;;;;;3.83;2.13;;;22.20;99.90;;;;;;5007015;28;20177;-71
2023/08/27 12:12:40;;;;;;;4.15;2.10;;;22.40;99.90;;;;;;5003772;28;20692;-71
2023/08/27 12:15:06;;;;;;;3.55;2.10;;;22.60;99.90;;;;;;5003597;28;20225;-69
2023/08/27 12:17:33;;;;;;;4.60;2.08;;;22.90;99.90;;;;;;4983642;28;20759;-70
2023/08/27 12:20:01;;;;;;;3.30;1.80;;;23.20;99.90;;;;;;5003689;28;20287;-72
2023/08/27 12:22:26;;;;;;;4.57;2.22;;;23.30;99.90;;;;;;4983784;28;20682;-70
2023/08/27 12:24:53;;;;;;;2.97;1.90;;;23.20;99.90;;;;;;5006623;28;20205;-70
2023/08/27 12:27:22;;;;;;;2.45;1.70;;;23.00;99.90;;;;;;5003880;28;20216;-71
2023/08/27 12:29:52;;;;;;;4.30;1.60;;;22.90;99.90;;;;;;4991778;28;20209;-70
2023/08/27 12:32:20;;;;;;;3.47;2.03;;;22.50;99.90;;;;;;5008835;28;20266;-71
2023/08/27 12:34:52;;;;;;;3.17;2.05;;;22.60;99.90;;;;;;5011467;28;20858;-70
2023/08/27 12:37:19;;;;;;;3.45;1.92;;;22.60;99.90;;;;;;5007752;28;20213;-71
2023/08/27 12:39:46;;;;;;;3.58;1.83;;;22.50;99.90;;;;;;4992807;28;20662;-71
2023/08/27 12:42:14;;;;;;;3.47;1.88;;;22.50;99.90;;;;;;5010812;28;20213;-70
2023/08/27 12:44:40;;;;;;;6.15;2.75;;;22.40;99.90;;;;;;4990429;28;20222;-71
2023/08/27 12:47:07;;;;;;;3.28;1.83;;;22.40;99.90;;;;;;5009703;28;20305;-71